sensor_id;sensor_type;location;lat;lon;timestamp;temperature;humidity
60469;DHT22;46316;47.582;10.238;2022-08-11T00:01:14;14.30;75.20
60469;DHT22;46316;47.582;10.238;2022-08-11T00:03:58;14.20;74.80
60469;DHT22;46316;47.582;10.238;2022-08-11T00:06:31;14.10;75.30
60469;DHT22;46316;47.582;10.238;2022-08-11T00:08:58;14.10;75.40
60469;DHT22;46316;47.582;10.238;2022-08-11T00:11:37;14.10;75.70
60469;DHT22;46316;47.582;10.238;2022-08-11T00:14:04;14.00;75.40
60469;DHT22;46316;47.582;10.238;2022-08-11T00:16:37;14.00;75.50
60469;DHT22;46316;47.582;10.238;2022-08-11T00:19:04;14.00;75.80
60469;DHT22;46316;47.582;10.238;2022-08-11T00:21:30;13.90;76.00
60469;DHT22;46316;47.582;10.238;2022-08-11T00:24:04;13.90;76.00
60469;DHT22;46316;47.582;10.238;2022-08-11T00:26:30;14.00;76.20
60469;DHT22;46316;47.582;10.238;2022-08-11T00:29:07;13.90;76.30
60469;DHT22;46316;47.582;10.238;2022-08-11T00:31:34;13.90;76.30
60469;DHT22;46316;47.582;10.238;2022-08-11T00:34:02;13.90;76.10
60469;DHT22;46316;47.582;10.238;2022-08-11T00:36:47;13.80;76.40
60469;DHT22;46316;47.582;10.238;2022-08-11T00:39:15;13.80;77.00
60469;DHT22;46316;47.582;10.238;2022-08-11T00:41:54;13.80;77.00
60469;DHT22;46316;47.582;10.238;2022-08-11T00:44:49;13.80;76.90
60469;DHT22;46316;47.582;10.238;2022-08-11T00:53:24;13.70;77.60
60469;DHT22;46316;47.582;10.238;2022-08-11T01:02:38;13.50;77.60
60469;DHT22;46316;47.582;10.238;2022-08-11T01:13:30;13.40;77.00
60469;DHT22;46316;47.582;10.238;2022-08-11T01:22:01;13.20;78.50
60469;DHT22;46316;47.582;10.238;2022-08-11T01:28:06;13.20;78.70
60469;DHT22;46316;47.582;10.238;2022-08-11T01:50:27;13.00;79.90
60469;DHT22;46316;47.582;10.238;2022-08-11T01:55:53;12.90;80.10
60469;DHT22;46316;47.582;10.238;2022-08-11T01:58:37;12.90;80.20
60469;DHT22;46316;47.582;10.238;2022-08-11T02:01:31;12.90;80.60
60469;DHT22;46316;47.582;10.238;2022-08-11T02:12:59;12.90;80.60
60469;DHT22;46316;47.582;10.238;2022-08-11T02:15:47;12.90;80.60
60469;DHT22;46316;47.582;10.238;2022-08-11T02:18:31;12.80;81.00
60469;DHT22;46316;47.582;10.238;2022-08-11T02:21:28;12.80;80.90
60469;DHT22;46316;47.582;10.238;2022-08-11T02:24:40;12.80;80.80
60469;DHT22;46316;47.582;10.238;2022-08-11T02:27:23;12.70;81.50
60469;DHT22;46316;47.582;10.238;2022-08-11T02:30:02;12.70;81.10
60469;DHT22;46316;47.582;10.238;2022-08-11T02:41:52;12.70;81.30
60469;DHT22;46316;47.582;10.238;2022-08-11T02:56:26;12.60;82.00
60469;DHT22;46316;47.582;10.238;2022-08-11T02:59:03;12.70;82.20
60469;DHT22;46316;47.582;10.238;2022-08-11T03:01:58;12.60;81.80
60469;DHT22;46316;47.582;10.238;2022-08-11T03:07:33;12.30;79.50
60469;DHT22;46316;47.582;10.238;2022-08-11T03:10:22;12.10;79.90
60469;DHT22;46316;47.582;10.238;2022-08-11T03:18:53;11.90;81.90
60469;DHT22;46316;47.582;10.238;2022-08-11T03:21:31;11.90;82.50
60469;DHT22;46316;47.582;10.238;2022-08-11T03:26:44;11.90;82.80
60469;DHT22;46316;47.582;10.238;2022-08-11T03:32:06;12.00;83.00
60469;DHT22;46316;47.582;10.238;2022-08-11T03:34:38;12.00;83.00
60469;DHT22;46316;47.582;10.238;2022-08-11T03:43:23;11.90;83.30
60469;DHT22;46316;47.582;10.238;2022-08-11T03:49:08;11.90;83.50
60469;DHT22;46316;47.582;10.238;2022-08-11T03:52:15;11.90;82.90
60469;DHT22;46316;47.582;10.238;2022-08-11T03:57:49;11.90;83.60
60469;DHT22;46316;47.582;10.238;2022-08-11T04:40:33;12.30;83.10
60469;DHT22;46316;47.582;10.238;2022-08-11T04:51:56;14.10;78.30
60469;DHT22;46316;47.582;10.238;2022-08-11T05:04:34;19.20;59.40
60469;DHT22;46316;47.582;10.238;2022-08-11T05:12:01;20.70;54.10
60469;DHT22;46316;47.582;10.238;2022-08-11T05:16:55;22.20;50.90
60469;DHT22;46316;47.582;10.238;2022-08-11T05:19:45;22.50;49.80
60469;DHT22;46316;47.582;10.238;2022-08-11T05:22:30;23.20;48.10
60469;DHT22;46316;47.582;10.238;2022-08-11T05:25:26;23.90;45.40
60469;DHT22;46316;47.582;10.238;2022-08-11T05:28:31;24.20;45.80
60469;DHT22;46316;47.582;10.238;2022-08-11T05:31:17;24.40;44.70
60469;DHT22;46316;47.582;10.238;2022-08-11T05:34:11;24.40;44.80
60469;DHT22;46316;47.582;10.238;2022-08-11T05:39:48;24.90;43.00
60469;DHT22;46316;47.582;10.238;2022-08-11T05:42:37;25.20;43.10
60469;DHT22;46316;47.582;10.238;2022-08-11T05:45:23;25.20;42.80
60469;DHT22;46316;47.582;10.238;2022-08-11T05:48:08;25.70;42.10
60469;DHT22;46316;47.582;10.238;2022-08-11T05:50:55;26.10;41.70
60469;DHT22;46316;47.582;10.238;2022-08-11T05:53:54;26.40;41.70
60469;DHT22;46316;47.582;10.238;2022-08-11T05:56:51;26.40;40.60
60469;DHT22;46316;47.582;10.238;2022-08-11T05:59:19;26.40;40.80
60469;DHT22;46316;47.582;10.238;2022-08-11T06:01:47;27.20;40.20
60469;DHT22;46316;47.582;10.238;2022-08-11T06:04:31;27.30;39.00
60469;DHT22;46316;47.582;10.238;2022-08-11T06:07:02;27.90;38.60
60469;DHT22;46316;47.582;10.238;2022-08-11T06:09:35;27.70;38.90
60469;DHT22;46316;47.582;10.238;2022-08-11T06:12:05;27.70;39.30
60469;DHT22;46316;47.582;10.238;2022-08-11T06:14:33;27.90;39.10
60469;DHT22;46316;47.582;10.238;2022-08-11T06:17:01;28.40;38.10
60469;DHT22;46316;47.582;10.238;2022-08-11T06:19:47;28.60;37.80
60469;DHT22;46316;47.582;10.238;2022-08-11T06:22:19;28.80;37.10
60469;DHT22;46316;47.582;10.238;2022-08-11T06:24:52;28.90;37.80
60469;DHT22;46316;47.582;10.238;2022-08-11T06:27:24;28.60;37.00
60469;DHT22;46316;47.582;10.238;2022-08-11T06:29:53;29.00;37.70
60469;DHT22;46316;47.582;10.238;2022-08-11T06:32:26;29.30;36.20
60469;DHT22;46316;47.582;10.238;2022-08-11T06:35:05;29.40;36.20
60469;DHT22;46316;47.582;10.238;2022-08-11T06:40:20;29.90;34.80
60469;DHT22;46316;47.582;10.238;2022-08-11T06:45:50;29.80;35.50
60469;DHT22;46316;47.582;10.238;2022-08-11T06:48:21;29.70;35.90
60469;DHT22;46316;47.582;10.238;2022-08-11T06:50:55;29.60;35.90
60469;DHT22;46316;47.582;10.238;2022-08-11T06:53:57;29.90;35.70
60469;DHT22;46316;47.582;10.238;2022-08-11T06:56:34;30.00;34.90
60469;DHT22;46316;47.582;10.238;2022-08-11T06:59:21;30.10;36.30
60469;DHT22;46316;47.582;10.238;2022-08-11T07:02:19;30.20;35.50
60469;DHT22;46316;47.582;10.238;2022-08-11T07:05:10;30.40;35.50
60469;DHT22;46316;47.582;10.238;2022-08-11T07:13:41;30.70;33.60
60469;DHT22;46316;47.582;10.238;2022-08-11T07:16:28;30.30;36.50
60469;DHT22;46316;47.582;10.238;2022-08-11T07:18:59;30.60;34.60
60469;DHT22;46316;47.582;10.238;2022-08-11T07:21:45;31.10;34.00
60469;DHT22;46316;47.582;10.238;2022-08-11T07:24:39;31.10;34.20
60469;DHT22;46316;47.582;10.238;2022-08-11T07:27:27;31.60;33.70
60469;DHT22;46316;47.582;10.238;2022-08-11T07:30:12;31.80;32.40
60469;DHT22;46316;47.582;10.238;2022-08-11T07:32:51;31.40;33.30
60469;DHT22;46316;47.582;10.238;2022-08-11T07:35:23;31.80;33.70
60469;DHT22;46316;47.582;10.238;2022-08-11T07:38:06;31.40;34.00
60469;DHT22;46316;47.582;10.238;2022-08-11T07:40:33;31.60;33.80
60469;DHT22;46316;47.582;10.238;2022-08-11T07:43:00;31.30;33.60
60469;DHT22;46316;47.582;10.238;2022-08-11T07:45:27;31.50;33.50
60469;DHT22;46316;47.582;10.238;2022-08-11T07:48:14;31.60;34.90
60469;DHT22;46316;47.582;10.238;2022-08-11T07:50:58;31.90;33.50
60469;DHT22;46316;47.582;10.238;2022-08-11T07:53:44;31.80;33.60
60469;DHT22;46316;47.582;10.238;2022-08-11T07:56:10;31.80;33.90
60469;DHT22;46316;47.582;10.238;2022-08-11T07:58:41;31.80;33.30
60469;DHT22;46316;47.582;10.238;2022-08-11T08:01:26;31.60;34.60
60469;DHT22;46316;47.582;10.238;2022-08-11T08:04:12;31.90;34.70
60469;DHT22;46316;47.582;10.238;2022-08-11T08:06:57;31.80;33.30
60469;DHT22;46316;47.582;10.238;2022-08-11T08:09:43;31.50;35.40
60469;DHT22;46316;47.582;10.238;2022-08-11T08:12:28;31.80;34.90
60469;DHT22;46316;47.582;10.238;2022-08-11T08:15:14;31.70;34.80
60469;DHT22;46316;47.582;10.238;2022-08-11T08:18:02;32.00;33.70
60469;DHT22;46316;47.582;10.238;2022-08-11T08:20:46;31.40;35.80
60469;DHT22;46316;47.582;10.238;2022-08-11T08:23:14;31.80;33.70
60469;DHT22;46316;47.582;10.238;2022-08-11T08:25:43;31.10;36.10
60469;DHT22;46316;47.582;10.238;2022-08-11T08:28:11;31.40;35.40
60469;DHT22;46316;47.582;10.238;2022-08-11T08:30:41;31.40;35.60
60469;DHT22;46316;47.582;10.238;2022-08-11T08:33:26;31.10;35.30
60469;DHT22;46316;47.582;10.238;2022-08-11T08:35:55;31.40;36.00
60469;DHT22;46316;47.582;10.238;2022-08-11T08:41:12;31.20;36.20
60469;DHT22;46316;47.582;10.238;2022-08-11T08:43:39;31.60;35.70
60469;DHT22;46316;47.582;10.238;2022-08-11T08:46:08;31.30;35.50
60469;DHT22;46316;47.582;10.238;2022-08-11T08:48:35;31.00;36.80
60469;DHT22;46316;47.582;10.238;2022-08-11T08:51:03;31.20;36.80
60469;DHT22;46316;47.582;10.238;2022-08-11T08:53:50;31.30;36.50
60469;DHT22;46316;47.582;10.238;2022-08-11T08:56:16;31.60;35.70
60469;DHT22;46316;47.582;10.238;2022-08-11T08:58:45;31.40;35.80
60469;DHT22;46316;47.582;10.238;2022-08-11T09:01:14;31.40;35.90
60469;DHT22;46316;47.582;10.238;2022-08-11T09:03:40;31.10;36.70
60469;DHT22;46316;47.582;10.238;2022-08-11T09:06:07;31.40;36.00
60469;DHT22;46316;47.582;10.238;2022-08-11T09:08:34;31.30;36.50
60469;DHT22;46316;47.582;10.238;2022-08-11T09:11:02;31.10;36.40
60469;DHT22;46316;47.582;10.238;2022-08-11T09:13:47;31.00;36.30
60469;DHT22;46316;47.582;10.238;2022-08-11T09:16:14;31.10;37.30
60469;DHT22;46316;47.582;10.238;2022-08-11T09:18:41;30.90;36.50
60469;DHT22;46316;47.582;10.238;2022-08-11T09:21:10;31.10;36.70
60469;DHT22;46316;47.582;10.238;2022-08-11T09:23:37;31.60;34.90
60469;DHT22;46316;47.582;10.238;2022-08-11T09:26:22;31.20;35.60
60469;DHT22;46316;47.582;10.238;2022-08-11T09:29:07;31.30;36.00
60469;DHT22;46316;47.582;10.238;2022-08-11T09:31:35;31.20;35.20
60469;DHT22;46316;47.582;10.238;2022-08-11T09:34:01;30.80;36.30
60469;DHT22;46316;47.582;10.238;2022-08-11T09:36:27;30.80;38.00
60469;DHT22;46316;47.582;10.238;2022-08-11T09:39:12;31.10;36.60
60469;DHT22;46316;47.582;10.238;2022-08-11T09:42:01;30.80;36.70
60469;DHT22;46316;47.582;10.238;2022-08-11T09:44:28;31.20;36.10
60469;DHT22;46316;47.582;10.238;2022-08-11T09:49:44;30.60;37.40
60469;DHT22;46316;47.582;10.238;2022-08-11T09:52:11;30.40;37.10
60469;DHT22;46316;47.582;10.238;2022-08-11T09:54:39;30.10;38.40
60469;DHT22;46316;47.582;10.238;2022-08-11T09:57:06;29.90;38.50
60469;DHT22;46316;47.582;10.238;2022-08-11T09:59:51;30.40;37.80
60469;DHT22;46316;47.582;10.238;2022-08-11T10:02:24;30.10;38.30
60469;DHT22;46316;47.582;10.238;2022-08-11T10:04:51;30.30;38.40
60469;DHT22;46316;47.582;10.238;2022-08-11T10:07:40;29.90;37.50
60469;DHT22;46316;47.582;10.238;2022-08-11T10:10:07;30.30;38.30
60469;DHT22;46316;47.582;10.238;2022-08-11T10:12:37;30.50;38.20
60469;DHT22;46316;47.582;10.238;2022-08-11T10:15:11;30.60;37.70
60469;DHT22;46316;47.582;10.238;2022-08-11T10:18:08;30.10;38.70
60469;DHT22;46316;47.582;10.238;2022-08-11T10:21:09;29.90;38.20
60469;DHT22;46316;47.582;10.238;2022-08-11T10:23:36;29.80;39.00
60469;DHT22;46316;47.582;10.238;2022-08-11T10:26:22;29.60;39.90
60469;DHT22;46316;47.582;10.238;2022-08-11T10:29:09;29.60;39.80
60469;DHT22;46316;47.582;10.238;2022-08-11T10:31:54;29.60;40.40
60469;DHT22;46316;47.582;10.238;2022-08-11T10:34:39;29.30;40.80
60469;DHT22;46316;47.582;10.238;2022-08-11T10:37:06;29.20;41.10
60469;DHT22;46316;47.582;10.238;2022-08-11T10:39:32;28.80;40.30
60469;DHT22;46316;47.582;10.238;2022-08-11T10:41:58;28.80;40.90
60469;DHT22;46316;47.582;10.238;2022-08-11T10:44:46;28.80;42.80
60469;DHT22;46316;47.582;10.238;2022-08-11T10:47:14;28.90;41.40
60469;DHT22;46316;47.582;10.238;2022-08-11T10:50:12;29.00;41.70
60469;DHT22;46316;47.582;10.238;2022-08-11T10:52:58;29.10;41.50
60469;DHT22;46316;47.582;10.238;2022-08-11T10:55:45;29.30;41.40
60469;DHT22;46316;47.582;10.238;2022-08-11T10:58:30;28.70;42.10
60469;DHT22;46316;47.582;10.238;2022-08-11T11:01:25;28.40;43.30
60469;DHT22;46316;47.582;10.238;2022-08-11T11:04:06;28.40;43.60
60469;DHT22;46316;47.582;10.238;2022-08-11T11:06:55;27.90;43.20
60469;DHT22;46316;47.582;10.238;2022-08-11T11:09:27;28.00;43.60
60469;DHT22;46316;47.582;10.238;2022-08-11T11:12:22;27.90;44.60
60469;DHT22;46316;47.582;10.238;2022-08-11T11:15:07;27.80;43.90
60469;DHT22;46316;47.582;10.238;2022-08-11T11:18:07;27.40;44.30
60469;DHT22;46316;47.582;10.238;2022-08-11T11:20:40;27.60;44.80
60469;DHT22;46316;47.582;10.238;2022-08-11T11:29:54;26.70;45.90
60469;DHT22;46316;47.582;10.238;2022-08-11T11:37:53;26.40;46.10
60469;DHT22;46316;47.582;10.238;2022-08-11T11:40:26;26.40;46.50
60469;DHT22;46316;47.582;10.238;2022-08-11T11:42:55;26.30;47.00
60469;DHT22;46316;47.582;10.238;2022-08-11T11:45:22;26.30;46.50
60469;DHT22;46316;47.582;10.238;2022-08-11T11:47:51;26.20;45.90
60469;DHT22;46316;47.582;10.238;2022-08-11T11:50:34;26.10;47.00
60469;DHT22;46316;47.582;10.238;2022-08-11T11:53:03;26.10;47.00
60469;DHT22;46316;47.582;10.238;2022-08-11T11:55:31;25.90;47.20
60469;DHT22;46316;47.582;10.238;2022-08-11T11:57:59;26.00;47.40
60469;DHT22;46316;47.582;10.238;2022-08-11T12:00:44;26.10;47.40
60469;DHT22;46316;47.582;10.238;2022-08-11T12:03:29;26.00;46.60
60469;DHT22;46316;47.582;10.238;2022-08-11T12:05:55;25.80;47.60
60469;DHT22;46316;47.582;10.238;2022-08-11T12:08:22;25.70;46.50
60469;DHT22;46316;47.582;10.238;2022-08-11T12:10:51;25.70;48.50
60469;DHT22;46316;47.582;10.238;2022-08-11T12:13:42;25.80;48.70
60469;DHT22;46316;47.582;10.238;2022-08-11T12:16:10;25.90;49.00
60469;DHT22;46316;47.582;10.238;2022-08-11T12:18:36;25.90;48.20
60469;DHT22;46316;47.582;10.238;2022-08-11T12:21:03;25.90;46.90
60469;DHT22;46316;47.582;10.238;2022-08-11T12:23:31;26.00;47.60
60469;DHT22;46316;47.582;10.238;2022-08-11T12:26:17;26.10;46.20
60469;DHT22;46316;47.582;10.238;2022-08-11T12:29:04;26.10;48.20
60469;DHT22;46316;47.582;10.238;2022-08-11T12:31:32;26.10;47.60
60469;DHT22;46316;47.582;10.238;2022-08-11T12:34:03;26.00;48.20
60469;DHT22;46316;47.582;10.238;2022-08-11T12:36:34;26.00;47.40
60469;DHT22;46316;47.582;10.238;2022-08-11T12:39:05;25.90;48.20
60469;DHT22;46316;47.582;10.238;2022-08-11T12:41:32;25.90;49.50
60469;DHT22;46316;47.582;10.238;2022-08-11T12:44:17;26.00;49.40
60469;DHT22;46316;47.582;10.238;2022-08-11T12:47:04;26.00;49.40
60469;DHT22;46316;47.582;10.238;2022-08-11T12:49:31;26.00;50.40
60469;DHT22;46316;47.582;10.238;2022-08-11T12:52:24;25.90;49.00
60469;DHT22;46316;47.582;10.238;2022-08-11T12:55:10;25.90;48.70
60469;DHT22;46316;47.582;10.238;2022-08-11T12:57:38;25.70;48.30
60469;DHT22;46316;47.582;10.238;2022-08-11T13:00:25;25.70;50.70
60469;DHT22;46316;47.582;10.238;2022-08-11T13:03:10;25.60;49.10
60469;DHT22;46316;47.582;10.238;2022-08-11T13:05:57;25.70;49.00
60469;DHT22;46316;47.582;10.238;2022-08-11T13:08:24;25.60;50.50
60469;DHT22;46316;47.582;10.238;2022-08-11T13:10:52;25.60;50.50
60469;DHT22;46316;47.582;10.238;2022-08-11T13:13:38;25.70;51.40
60469;DHT22;46316;47.582;10.238;2022-08-11T13:16:07;25.70;49.00
60469;DHT22;46316;47.582;10.238;2022-08-11T13:18:34;25.70;50.60
60469;DHT22;46316;47.582;10.238;2022-08-11T13:21:00;25.80;50.50
60469;DHT22;46316;47.582;10.238;2022-08-11T13:23:26;25.70;49.70
60469;DHT22;46316;47.582;10.238;2022-08-11T13:25:54;25.70;50.70
60469;DHT22;46316;47.582;10.238;2022-08-11T13:28:21;25.60;49.10
60469;DHT22;46316;47.582;10.238;2022-08-11T13:30:48;25.80;50.10
60469;DHT22;46316;47.582;10.238;2022-08-11T13:33:35;25.80;50.20
60469;DHT22;46316;47.582;10.238;2022-08-11T13:36:05;25.80;51.70
60469;DHT22;46316;47.582;10.238;2022-08-11T13:38:31;25.80;49.30
60469;DHT22;46316;47.582;10.238;2022-08-11T13:40:58;25.60;49.50
60469;DHT22;46316;47.582;10.238;2022-08-11T13:43:24;25.60;49.20
60469;DHT22;46316;47.582;10.238;2022-08-11T13:45:51;25.60;49.70
60469;DHT22;46316;47.582;10.238;2022-08-11T13:48:37;25.60;48.90
60469;DHT22;46316;47.582;10.238;2022-08-11T13:51:04;25.60;50.70
60469;DHT22;46316;47.582;10.238;2022-08-11T13:53:49;25.60;48.50
60469;DHT22;46316;47.582;10.238;2022-08-11T13:56:16;25.70;50.70
60469;DHT22;46316;47.582;10.238;2022-08-11T13:58:42;25.70;48.70
60469;DHT22;46316;47.582;10.238;2022-08-11T14:01:09;25.80;48.10
60469;DHT22;46316;47.582;10.238;2022-08-11T14:03:39;25.80;49.90
60469;DHT22;46316;47.582;10.238;2022-08-11T14:06:06;25.80;48.80
60469;DHT22;46316;47.582;10.238;2022-08-11T14:08:37;25.80;48.70
60469;DHT22;46316;47.582;10.238;2022-08-11T14:11:04;25.80;48.90
60469;DHT22;46316;47.582;10.238;2022-08-11T14:13:50;25.80;48.70
60469;DHT22;46316;47.582;10.238;2022-08-11T14:16:30;25.80;50.40
60469;DHT22;46316;47.582;10.238;2022-08-11T14:18:59;25.80;48.90
60469;DHT22;46316;47.582;10.238;2022-08-11T14:21:27;25.90;50.90
60469;DHT22;46316;47.582;10.238;2022-08-11T14:24:15;25.90;48.60
60469;DHT22;46316;47.582;10.238;2022-08-11T14:26:42;25.80;48.40
60469;DHT22;46316;47.582;10.238;2022-08-11T14:29:11;25.70;48.80
60469;DHT22;46316;47.582;10.238;2022-08-11T14:31:42;25.60;48.90
60469;DHT22;46316;47.582;10.238;2022-08-11T14:34:09;25.40;49.50
60469;DHT22;46316;47.582;10.238;2022-08-11T14:36:44;25.40;50.10
60469;DHT22;46316;47.582;10.238;2022-08-11T14:39:14;25.40;49.10
60469;DHT22;46316;47.582;10.238;2022-08-11T14:41:48;25.30;50.20
60469;DHT22;46316;47.582;10.238;2022-08-11T14:44:35;25.30;50.40
60469;DHT22;46316;47.582;10.238;2022-08-11T14:47:20;25.20;50.30
60469;DHT22;46316;47.582;10.238;2022-08-11T14:49:47;25.30;50.00
60469;DHT22;46316;47.582;10.238;2022-08-11T14:52:16;25.30;51.20
60469;DHT22;46316;47.582;10.238;2022-08-11T14:54:44;25.30;51.20
60469;DHT22;46316;47.582;10.238;2022-08-11T14:57:30;25.30;51.20
60469;DHT22;46316;47.582;10.238;2022-08-11T14:59:59;25.30;50.10
60469;DHT22;46316;47.582;10.238;2022-08-11T15:02:26;25.30;50.60
60469;DHT22;46316;47.582;10.238;2022-08-11T15:05:11;25.30;50.60
60469;DHT22;46316;47.582;10.238;2022-08-11T15:07:38;25.20;49.70
60469;DHT22;46316;47.582;10.238;2022-08-11T15:10:06;25.30;49.30
60469;DHT22;46316;47.582;10.238;2022-08-11T15:12:34;25.30;50.40
60469;DHT22;46316;47.582;10.238;2022-08-11T15:15:01;25.30;49.70
60469;DHT22;46316;47.582;10.238;2022-08-11T15:17:45;25.30;49.80
60469;DHT22;46316;47.582;10.238;2022-08-11T15:20:17;25.20;50.60
60469;DHT22;46316;47.582;10.238;2022-08-11T15:23:02;25.20;50.20
60469;DHT22;46316;47.582;10.238;2022-08-11T15:25:56;25.20;49.60
60469;DHT22;46316;47.582;10.238;2022-08-11T15:28:23;25.20;49.20
60469;DHT22;46316;47.582;10.238;2022-08-11T15:31:10;25.20;50.10
60469;DHT22;46316;47.582;10.238;2022-08-11T15:34:01;25.20;49.90
60469;DHT22;46316;47.582;10.238;2022-08-11T15:36:47;25.10;50.50
60469;DHT22;46316;47.582;10.238;2022-08-11T15:39:44;25.20;49.10
60469;DHT22;46316;47.582;10.238;2022-08-11T15:42:32;25.30;48.80
60469;DHT22;46316;47.582;10.238;2022-08-11T15:45:21;25.30;49.70
60469;DHT22;46316;47.582;10.238;2022-08-11T15:48:08;25.30;49.80
60469;DHT22;46316;47.582;10.238;2022-08-11T15:50:45;25.30;49.90
60469;DHT22;46316;47.582;10.238;2022-08-11T15:53:31;25.40;48.10
60469;DHT22;46316;47.582;10.238;2022-08-11T15:55:59;25.40;48.50
60469;DHT22;46316;47.582;10.238;2022-08-11T15:58:31;25.50;48.70
60469;DHT22;46316;47.582;10.238;2022-08-11T16:01:19;25.50;47.50
60469;DHT22;46316;47.582;10.238;2022-08-11T16:04:08;25.60;47.10
60469;DHT22;46316;47.582;10.238;2022-08-11T16:06:57;25.70;47.80
60469;DHT22;46316;47.582;10.238;2022-08-11T16:09:34;25.40;47.00
60469;DHT22;46316;47.582;10.238;2022-08-11T16:12:07;25.40;47.50
60469;DHT22;46316;47.582;10.238;2022-08-11T16:14:38;25.20;48.40
60469;DHT22;46316;47.582;10.238;2022-08-11T16:17:24;25.10;48.70
60469;DHT22;46316;47.582;10.238;2022-08-11T16:19:53;25.10;48.00
60469;DHT22;46316;47.582;10.238;2022-08-11T16:22:24;25.10;48.90
60469;DHT22;46316;47.582;10.238;2022-08-11T16:24:53;24.90;50.30
60469;DHT22;46316;47.582;10.238;2022-08-11T16:27:20;24.80;50.10
60469;DHT22;46316;47.582;10.238;2022-08-11T16:29:46;24.70;49.50
60469;DHT22;46316;47.582;10.238;2022-08-11T16:32:20;24.50;50.60
60469;DHT22;46316;47.582;10.238;2022-08-11T16:34:54;24.40;51.90
60469;DHT22;46316;47.582;10.238;2022-08-11T16:37:39;24.30;50.40
60469;DHT22;46316;47.582;10.238;2022-08-11T16:40:25;24.20;51.80
60469;DHT22;46316;47.582;10.238;2022-08-11T16:42:51;24.00;52.40
60469;DHT22;46316;47.582;10.238;2022-08-11T16:45:39;24.00;53.10
60469;DHT22;46316;47.582;10.238;2022-08-11T16:48:26;24.00;53.50
60469;DHT22;46316;47.582;10.238;2022-08-11T16:50:53;23.90;53.30
60469;DHT22;46316;47.582;10.238;2022-08-11T16:53:19;23.80;53.70
60469;DHT22;46316;47.582;10.238;2022-08-11T16:55:46;23.80;54.00
60469;DHT22;46316;47.582;10.238;2022-08-11T16:58:14;23.80;55.00
60469;DHT22;46316;47.582;10.238;2022-08-11T17:00:59;23.80;53.60
60469;DHT22;46316;47.582;10.238;2022-08-11T17:03:25;23.80;53.90
60469;DHT22;46316;47.582;10.238;2022-08-11T17:06:10;23.80;54.20
60469;DHT22;46316;47.582;10.238;2022-08-11T17:08:55;23.80;54.70
60469;DHT22;46316;47.582;10.238;2022-08-11T17:11:48;23.80;53.90
60469;DHT22;46316;47.582;10.238;2022-08-11T17:17:20;23.70;54.10
60469;DHT22;46316;47.582;10.238;2022-08-11T17:19:51;23.70;54.70
60469;DHT22;46316;47.582;10.238;2022-08-11T17:22:17;23.60;54.30
60469;DHT22;46316;47.582;10.238;2022-08-11T17:25:04;23.60;53.80
60469;DHT22;46316;47.582;10.238;2022-08-11T17:27:31;23.50;53.30
60469;DHT22;46316;47.582;10.238;2022-08-11T17:30:01;23.40;53.70
60469;DHT22;46316;47.582;10.238;2022-08-11T17:32:44;23.40;54.40
60469;DHT22;46316;47.582;10.238;2022-08-11T17:35:39;23.30;54.50
60469;DHT22;46316;47.582;10.238;2022-08-11T17:38:16;23.30;54.20
60469;DHT22;46316;47.582;10.238;2022-08-11T17:40:44;23.10;54.50
60469;DHT22;46316;47.582;10.238;2022-08-11T17:43:30;23.10;54.90
60469;DHT22;46316;47.582;10.238;2022-08-11T17:46:15;23.00;54.50
60469;DHT22;46316;47.582;10.238;2022-08-11T17:49:00;23.00;55.70
60469;DHT22;46316;47.582;10.238;2022-08-11T17:51:28;22.90;55.30
60469;DHT22;46316;47.582;10.238;2022-08-11T17:54:13;22.80;55.80
60469;DHT22;46316;47.582;10.238;2022-08-11T17:56:58;22.70;55.80
60469;DHT22;46316;47.582;10.238;2022-08-11T17:59:44;22.60;55.50
60469;DHT22;46316;47.582;10.238;2022-08-11T18:02:21;22.50;55.20
60469;DHT22;46316;47.582;10.238;2022-08-11T18:05:08;22.40;56.00
60469;DHT22;46316;47.582;10.238;2022-08-11T18:07:35;22.30;56.90
60469;DHT22;46316;47.582;10.238;2022-08-11T18:10:20;22.20;57.60
60469;DHT22;46316;47.582;10.238;2022-08-11T18:13:05;22.00;58.00
60469;DHT22;46316;47.582;10.238;2022-08-11T18:15:49;21.80;58.60
60469;DHT22;46316;47.582;10.238;2022-08-11T18:18:34;21.70;59.20
60469;DHT22;46316;47.582;10.238;2022-08-11T18:21:18;21.60;59.00
60469;DHT22;46316;47.582;10.238;2022-08-11T18:24:09;21.40;59.00
60469;DHT22;46316;47.582;10.238;2022-08-11T18:26:57;21.40;59.90
60469;DHT22;46316;47.582;10.238;2022-08-11T18:29:43;21.10;60.10
60469;DHT22;46316;47.582;10.238;2022-08-11T18:32:31;21.10;59.80
60469;DHT22;46316;47.582;10.238;2022-08-11T18:35:18;21.00;59.20
60469;DHT22;46316;47.582;10.238;2022-08-11T18:38:03;20.90;59.50
60469;DHT22;46316;47.582;10.238;2022-08-11T18:40:50;20.90;59.40
60469;DHT22;46316;47.582;10.238;2022-08-11T18:43:38;20.90;59.60
60469;DHT22;46316;47.582;10.238;2022-08-11T18:46:25;20.90;59.10
60469;DHT22;46316;47.582;10.238;2022-08-11T18:49:15;20.80;59.30
60469;DHT22;46316;47.582;10.238;2022-08-11T18:52:01;20.70;59.70
60469;DHT22;46316;47.582;10.238;2022-08-11T18:54:47;20.60;60.10
60469;DHT22;46316;47.582;10.238;2022-08-11T18:57:35;20.50;60.40
60469;DHT22;46316;47.582;10.238;2022-08-11T19:00:21;20.40;61.00
60469;DHT22;46316;47.582;10.238;2022-08-11T19:03:05;20.30;61.10
60469;DHT22;46316;47.582;10.238;2022-08-11T19:05:51;20.10;61.30
60469;DHT22;46316;47.582;10.238;2022-08-11T19:08:40;20.10;61.30
60469;DHT22;46316;47.582;10.238;2022-08-11T19:11:25;20.00;61.50
60469;DHT22;46316;47.582;10.238;2022-08-11T19:14:11;19.90;61.50
60469;DHT22;46316;47.582;10.238;2022-08-11T19:16:59;19.90;61.70
60469;DHT22;46316;47.582;10.238;2022-08-11T19:19:45;19.80;61.80
60469;DHT22;46316;47.582;10.238;2022-08-11T19:22:32;19.70;61.70
60469;DHT22;46316;47.582;10.238;2022-08-11T19:25:19;19.70;61.10
60469;DHT22;46316;47.582;10.238;2022-08-11T19:28:05;19.70;61.30
60469;DHT22;46316;47.582;10.238;2022-08-11T19:30:50;19.50;61.60
60469;DHT22;46316;47.582;10.238;2022-08-11T19:33:36;19.40;62.50
60469;DHT22;46316;47.582;10.238;2022-08-11T19:36:22;19.30;63.30
60469;DHT22;46316;47.582;10.238;2022-08-11T19:39:08;19.20;61.90
60469;DHT22;46316;47.582;10.238;2022-08-11T19:41:54;19.30;61.20
60469;DHT22;46316;47.582;10.238;2022-08-11T19:44:40;19.30;60.50
60469;DHT22;46316;47.582;10.238;2022-08-11T19:47:25;19.30;61.20
60469;DHT22;46316;47.582;10.238;2022-08-11T19:50:12;19.20;61.70
60469;DHT22;46316;47.582;10.238;2022-08-11T19:52:58;19.10;61.30